createdAt,value
2018-05-03T00:00:56.095Z,3.10
2018-05-03T00:01:56.143Z,2.90
2018-05-03T00:02:56.082Z,3.20
2018-05-03T00:03:56.052Z,3.30
2018-05-03T00:04:56.051Z,3.20
2018-05-03T00:05:56.023Z,3.30
2018-05-03T00:06:56.006Z,3.60
2018-05-03T00:07:55.994Z,3.70
2018-05-03T00:08:55.997Z,3.90
2018-05-03T00:09:55.967Z,4.00
2018-05-03T00:10:55.950Z,3.70
2018-05-03T00:11:55.938Z,3.80
2018-05-03T00:12:55.922Z,4.10
2018-05-03T00:14:16.919Z,3.70
2018-05-03T00:14:56.657Z,3.10
2018-05-03T00:15:55.875Z,2.80
2018-05-03T00:16:55.878Z,2.50
2018-05-03T00:17:55.842Z,2.20
2018-05-03T00:18:55.830Z,2.10
2018-05-03T00:19:55.834Z,2.10
2018-05-03T00:20:55.804Z,2.10
2018-05-03T00:21:55.795Z,2.00
2018-05-03T00:22:55.770Z,2.00
2018-05-03T00:23:55.754Z,2.10
2018-05-03T00:24:55.745Z,2.10
2018-05-03T00:25:55.761Z,1.80
2018-05-03T00:26:55.713Z,1.90
2018-05-03T00:27:55.748Z,2.00
2018-05-03T00:28:56.158Z,2.00
2018-05-03T00:29:55.742Z,2.00
2018-05-03T00:30:55.655Z,1.90
2018-05-03T00:31:55.681Z,2.00
2018-05-03T00:32:55.626Z,2.10
2018-05-03T00:33:55.620Z,2.10
2018-05-03T00:34:55.597Z,2.10
2018-05-03T00:35:55.592Z,2.30
2018-05-03T00:36:55.563Z,2.10
2018-05-03T00:37:55.577Z,2.20
2018-05-03T00:38:55.539Z,2.20
2018-05-03T00:39:55.520Z,2.40
2018-05-03T00:40:55.523Z,2.30
2018-05-03T00:41:55.499Z,2.50
2018-05-03T00:42:55.483Z,2.10
2018-05-03T00:43:55.462Z,2.40
2018-05-03T00:44:55.448Z,2.50
2018-05-03T00:45:55.449Z,2.50
2018-05-03T00:46:55.413Z,2.30
2018-05-03T00:47:55.399Z,2.30
2018-05-03T00:48:55.483Z,2.50
2018-05-03T00:49:55.386Z,2.50
2018-05-03T00:50:55.359Z,2.50
2018-05-03T00:51:55.359Z,2.30
2018-05-03T00:52:55.334Z,2.30
2018-05-03T00:53:55.309Z,2.70
2018-05-03T00:54:55.297Z,2.70
2018-05-03T00:55:55.279Z,2.70
2018-05-03T00:56:55.282Z,2.60
2018-05-03T00:57:55.259Z,2.70
2018-05-03T00:58:55.253Z,3.00
2018-05-03T00:59:55.221Z,3.00
2018-05-03T01:00:55.211Z,2.90
2018-05-03T01:01:55.189Z,2.80
2018-05-03T01:02:55.178Z,2.70
2018-05-03T01:03:55.174Z,2.80
2018-05-03T01:04:55.149Z,2.80
2018-05-03T01:05:55.144Z,2.70
2018-05-03T01:06:55.119Z,2.90
2018-05-03T01:07:55.121Z,2.60
2018-05-03T01:08:55.106Z,2.80
2018-05-03T01:09:55.076Z,2.90
2018-05-03T01:10:55.072Z,3.00
2018-05-03T01:11:55.039Z,3.00
2018-05-03T01:12:55.023Z,3.00
2018-05-03T01:13:55.035Z,2.90
2018-05-03T01:14:55.011Z,3.00
2018-05-03T01:15:54.994Z,2.90
2018-05-03T01:16:54.966Z,2.90
2018-05-03T01:17:54.953Z,2.80
2018-05-03T01:18:54.934Z,2.80
2018-05-03T01:19:54.916Z,3.10
2018-05-03T01:20:54.906Z,2.90
2018-05-03T01:21:54.908Z,2.90
2018-05-03T01:22:54.878Z,3.00
2018-05-03T01:23:54.878Z,3.00
2018-05-03T01:24:54.862Z,3.30
2018-05-03T01:25:54.832Z,3.10
2018-05-03T01:26:54.818Z,3.40
2018-05-03T01:27:54.797Z,3.10
2018-05-03T01:28:54.786Z,3.50
2018-05-03T01:29:54.766Z,3.50
2018-05-03T01:30:54.769Z,3.20
2018-05-03T01:31:54.744Z,3.70
2018-05-03T01:32:54.739Z,4.10
2018-05-03T01:33:54.710Z,4.10
2018-05-03T01:34:54.718Z,4.10
2018-05-03T01:35:54.681Z,4.10
2018-05-03T01:36:54.663Z,4.30
2018-05-03T01:37:54.661Z,4.30
2018-05-03T01:38:54.633Z,4.40
2018-05-03T01:39:54.636Z,4.30
2018-05-03T01:40:54.627Z,4.70
2018-05-03T01:41:54.597Z,5.00
2018-05-03T01:42:54.595Z,4.80
2018-05-03T01:43:54.575Z,4.90
2018-05-03T01:44:54.557Z,5.10
2018-05-03T01:45:54.536Z,5.10
2018-05-03T01:46:54.515Z,5.00
2018-05-03T01:47:54.515Z,5.20
2018-05-03T01:48:54.485Z,5.30
2018-05-03T01:49:54.480Z,5.50
2018-05-03T01:50:54.450Z,5.80
2018-05-03T01:51:54.459Z,5.40
2018-05-03T01:52:54.444Z,5.80
2018-05-03T01:53:54.409Z,5.60
2018-05-03T01:54:54.394Z,6.10
2018-05-03T01:55:54.381Z,6.50
2018-05-03T01:56:54.385Z,6.80
2018-05-03T01:57:54.351Z,7.20
2018-05-03T01:58:54.329Z,7.70
2018-05-03T01:59:54.325Z,7.70
2018-05-03T02:00:54.309Z,7.90
2018-05-03T02:01:54.291Z,7.70
2018-05-03T02:02:54.292Z,7.80
2018-05-03T02:03:54.260Z,7.60
2018-05-03T02:04:54.268Z,7.90
2018-05-03T02:05:54.247Z,8.00
2018-05-03T02:06:54.216Z,9.10
2018-05-03T02:07:54.197Z,9.50
2018-05-03T02:08:54.203Z,9.50
2018-05-03T02:09:54.172Z,9.00
2018-05-03T02:10:54.152Z,8.90
2018-05-03T02:11:54.138Z,9.50
2018-05-03T02:12:54.126Z,9.20
2018-05-03T02:13:54.123Z,9.90
2018-05-03T02:14:54.095Z,9.40
2018-05-03T02:15:54.094Z,9.50
2018-05-03T02:16:54.059Z,10.00
2018-05-03T02:17:54.051Z,10.00
2018-05-03T02:18:54.029Z,9.90
2018-05-03T02:19:54.036Z,10.50
2018-05-03T02:20:54.008Z,10.10
2018-05-03T02:21:53.983Z,10.10
2018-05-03T02:22:53.972Z,10.80
2018-05-03T02:23:53.960Z,10.50
2018-05-03T02:24:53.954Z,11.20
2018-05-03T02:25:53.993Z,10.60
2018-05-03T02:26:53.911Z,11.30
2018-05-03T02:27:53.900Z,11.20
2018-05-03T02:28:53.885Z,11.50
2018-05-03T02:29:53.866Z,11.10
2018-05-03T02:30:53.867Z,11.50
2018-05-03T02:31:53.850Z,11.20
2018-05-03T02:32:53.919Z,12.00
2018-05-03T02:33:53.828Z,12.00
2018-05-03T02:34:53.794Z,11.60
2018-05-03T02:35:53.790Z,11.60
2018-05-03T02:36:53.758Z,11.60
2018-05-03T02:37:53.764Z,11.60
2018-05-03T02:38:53.726Z,11.90
2018-05-03T02:39:53.715Z,11.60
2018-05-03T02:40:53.696Z,11.60
2018-05-03T02:41:53.705Z,11.60
2018-05-03T02:42:53.683Z,11.60
2018-05-03T02:43:53.652Z,11.30
2018-05-03T02:44:53.632Z,11.40
2018-05-03T02:45:53.628Z,11.70
2018-05-03T02:46:53.603Z,11.70
2018-05-03T02:47:53.603Z,11.50
2018-05-03T02:48:53.596Z,11.70
2018-05-03T02:49:53.577Z,11.30
2018-05-03T02:50:53.560Z,11.00
2018-05-03T02:51:53.535Z,11.30
2018-05-03T02:52:53.519Z,10.90
2018-05-03T02:53:53.501Z,11.20
2018-05-03T02:54:53.479Z,10.60
2018-05-03T02:55:53.488Z,10.60
2018-05-03T02:56:53.456Z,10.60
2018-05-03T02:57:53.438Z,10.90
2018-05-03T02:58:53.423Z,11.10
2018-05-03T02:59:53.421Z,10.50
2018-05-03T03:00:53.415Z,10.20
2018-05-03T03:01:53.388Z,10.50
2018-05-03T03:02:53.357Z,10.00
2018-05-03T03:03:53.342Z,9.50
2018-05-03T03:04:53.341Z,9.50
2018-05-03T03:05:53.343Z,9.80
2018-05-03T03:06:53.298Z,9.80
2018-05-03T03:07:53.291Z,9.30
2018-05-03T03:08:53.275Z,9.30
2018-05-03T03:09:53.257Z,9.50
2018-05-03T03:10:53.240Z,8.90
2018-05-03T03:11:53.238Z,9.50
2018-05-03T03:12:53.207Z,9.20
2018-05-03T03:13:53.200Z,8.70
2018-05-03T03:14:53.174Z,8.70
2018-05-03T03:15:53.156Z,8.40
2018-05-03T03:16:53.162Z,8.40
2018-05-03T03:17:53.145Z,8.30
2018-05-03T03:18:53.122Z,7.60
2018-05-03T03:19:53.102Z,7.70
2018-05-03T03:20:53.085Z,7.30
2018-05-03T03:21:53.074Z,7.40
2018-05-03T03:22:53.059Z,7.20
2018-05-03T03:23:53.056Z,6.90
2018-05-03T03:24:53.037Z,6.40
2018-05-03T03:25:53.002Z,6.50
2018-05-03T03:26:53.000Z,6.60
2018-05-03T03:27:52.982Z,6.70
2018-05-03T03:28:52.992Z,6.60
2018-05-03T03:29:52.944Z,6.50
2018-05-03T03:30:52.938Z,6.80
2018-05-03T03:31:52.909Z,6.60
2018-05-03T03:32:52.895Z,6.70
2018-05-03T03:33:52.878Z,6.00
2018-05-03T03:34:52.886Z,6.30
2018-05-03T03:35:52.846Z,6.10
2018-05-03T03:36:52.840Z,6.20
2018-05-03T03:37:52.819Z,5.80
2018-05-03T03:38:52.804Z,6.00
2018-05-03T03:39:52.802Z,6.20
2018-05-03T03:40:52.776Z,5.60
2018-05-03T03:41:52.771Z,5.70
2018-05-03T03:42:52.746Z,5.20
2018-05-03T03:43:52.723Z,5.60
2018-05-03T03:44:52.707Z,5.40
2018-05-03T03:45:52.692Z,5.60
2018-05-03T03:46:52.698Z,5.50
2018-05-03T03:47:52.663Z,5.50
2018-05-03T03:48:52.711Z,5.50
2018-05-03T03:49:52.629Z,5.10
2018-05-03T03:50:52.622Z,5.40
2018-05-03T03:51:52.607Z,5.30
2018-05-03T03:52:52.597Z,5.20
2018-05-03T03:53:52.565Z,5.20
2018-05-03T03:54:52.560Z,5.40
2018-05-03T03:55:52.529Z,5.40
2018-05-03T03:56:52.541Z,5.50
2018-05-03T03:57:52.501Z,5.30
2018-05-03T03:58:52.492Z,5.30
2018-05-03T03:59:52.476Z,5.20
2018-05-03T04:00:52.455Z,5.20
2018-05-03T04:01:52.438Z,5.40
2018-05-03T04:02:52.445Z,5.60
2018-05-03T04:03:52.402Z,5.20
2018-05-03T04:04:52.410Z,5.20
2018-05-03T04:05:52.381Z,5.60
2018-05-03T04:06:52.349Z,5.80
2018-05-03T04:07:52.355Z,5.00
2018-05-03T04:08:52.334Z,5.10
2018-05-03T04:09:52.310Z,5.20
2018-05-03T04:10:52.307Z,5.30
2018-05-03T04:11:52.276Z,5.40
2018-05-03T04:12:52.259Z,5.30
2018-05-03T04:13:52.240Z,5.60
2018-05-03T04:14:52.227Z,5.40
2018-05-03T04:15:52.229Z,5.40
2018-05-03T04:16:52.193Z,5.40
2018-05-03T04:17:52.179Z,5.20
2018-05-03T04:18:52.159Z,5.50
2018-05-03T04:19:52.145Z,5.40
2018-05-03T04:20:52.148Z,5.60
2018-05-03T04:21:52.114Z,5.70
2018-05-03T04:22:52.121Z,5.80
2018-05-03T04:23:52.080Z,5.80
2018-05-03T04:24:52.731Z,5.90
2018-05-03T04:25:52.086Z,5.70
2018-05-03T04:26:52.030Z,5.70
2018-05-03T04:27:52.020Z,5.70
2018-05-03T04:28:52.001Z,5.60
2018-05-03T04:29:51.987Z,5.90
2018-05-03T04:30:51.974Z,5.60
2018-05-03T04:31:51.970Z,5.60
2018-05-03T04:32:51.931Z,6.10
2018-05-03T04:33:51.916Z,6.30
2018-05-03T04:34:51.905Z,6.30
2018-05-03T04:35:51.890Z,6.50
2018-05-03T04:36:51.892Z,6.50
2018-05-03T04:37:51.866Z,6.30
2018-05-03T04:38:51.852Z,6.30
2018-05-03T04:39:51.843Z,6.20
2018-05-03T04:40:51.808Z,6.20
2018-05-03T04:41:51.799Z,6.10
2018-05-03T04:42:51.771Z,6.50
2018-05-03T04:43:51.761Z,6.80
2018-05-03T04:44:51.824Z,6.60
2018-05-03T04:45:51.723Z,6.70
2018-05-03T04:46:51.915Z,6.30
2018-05-03T04:47:51.812Z,7.30
2018-05-03T04:48:51.727Z,7.00
2018-05-03T04:49:51.697Z,7.00
2018-05-03T04:50:52.208Z,7.10
2018-05-03T04:51:51.786Z,7.00
2018-05-03T04:52:51.610Z,7.20
2018-05-03T04:53:51.602Z,7.10
2018-05-03T04:54:51.661Z,7.10
2018-05-03T04:55:53.214Z,7.10
2018-05-03T04:56:51.613Z,7.00
2018-05-03T04:57:51.852Z,7.40
2018-05-03T04:58:51.509Z,6.90
2018-05-03T04:59:51.503Z,7.30
2018-05-03T05:00:51.479Z,6.70
2018-05-03T05:01:51.497Z,6.50
2018-05-03T05:02:51.465Z,7.20
2018-05-03T05:03:51.469Z,6.80
2018-05-03T05:04:51.466Z,6.90
2018-05-03T05:05:51.470Z,6.60
2018-05-03T05:06:51.435Z,6.50
2018-05-03T05:07:51.421Z,6.60
2018-05-03T05:08:51.370Z,6.50
2018-05-03T05:09:51.357Z,6.80
2018-05-03T05:10:51.326Z,7.10
2018-05-03T05:11:51.323Z,6.80
2018-05-03T05:12:51.323Z,7.10
2018-05-03T05:13:51.285Z,6.60
2018-05-03T05:14:51.299Z,6.70
2018-05-03T05:15:51.248Z,6.80
2018-05-03T05:16:51.253Z,7.00
2018-05-03T05:17:51.323Z,6.90
2018-05-03T05:18:51.254Z,6.40
2018-05-03T05:19:51.216Z,6.50
2018-05-03T05:20:51.208Z,6.60
2018-05-03T05:21:51.149Z,6.50
2018-05-03T05:22:51.137Z,6.40
2018-05-03T05:23:51.170Z,6.40
2018-05-03T05:24:51.190Z,6.40
2018-05-03T05:25:51.082Z,6.80
2018-05-03T05:26:51.072Z,6.50
2018-05-03T05:27:51.057Z,6.70
2018-05-03T05:28:51.066Z,6.60
2018-05-03T05:29:51.055Z,6.60
2018-05-03T05:30:51.001Z,6.60
2018-05-03T05:31:51.722Z,6.70
2018-05-03T05:32:50.973Z,5.90
2018-05-03T05:33:51.963Z,6.30
2018-05-03T05:34:50.997Z,6.00
2018-05-03T05:35:50.924Z,5.70
2018-05-03T05:36:50.934Z,6.10
2018-05-03T05:37:50.916Z,5.90
2018-05-03T05:38:50.943Z,5.80
2018-05-03T05:39:50.903Z,5.90
2018-05-03T05:40:50.886Z,6.00
2018-05-03T05:41:50.841Z,6.30
2018-05-03T05:42:50.823Z,6.30
2018-05-03T05:43:50.808Z,6.10
2018-05-03T05:44:50.799Z,6.20
2018-05-03T05:45:50.775Z,6.40
2018-05-03T05:46:50.756Z,6.50
2018-05-03T05:47:50.764Z,6.40
2018-05-03T05:48:50.715Z,6.40
2018-05-03T05:49:50.737Z,6.10
2018-05-03T05:50:50.707Z,6.50
2018-05-03T05:51:50.667Z,6.20
2018-05-03T05:52:50.721Z,6.40
2018-05-03T05:53:50.634Z,6.80
2018-05-03T05:54:50.633Z,6.80
2018-05-03T05:55:50.628Z,7.10
2018-05-03T05:56:50.594Z,6.80
2018-05-03T05:57:50.572Z,6.80
2018-05-03T05:58:50.551Z,6.30
2018-05-03T05:59:50.557Z,6.60
2018-05-03T06:00:50.526Z,6.40
2018-05-03T06:01:50.533Z,6.50
2018-05-03T06:02:50.526Z,6.60
2018-05-03T06:03:50.480Z,6.60
2018-05-03T06:04:50.456Z,6.30
2018-05-03T06:05:50.459Z,6.20
2018-05-03T06:06:50.418Z,6.70
2018-05-03T06:07:50.404Z,6.40
2018-05-03T06:08:50.391Z,5.90
2018-05-03T06:09:50.394Z,6.10
2018-05-03T06:10:50.364Z,6.10
2018-05-03T06:11:50.361Z,5.70
2018-05-03T06:12:50.343Z,5.70
2018-05-03T06:13:50.313Z,5.90
2018-05-03T06:14:50.301Z,5.90
2018-05-03T06:15:50.285Z,5.40
2018-05-03T06:16:50.266Z,5.80
2018-05-03T06:17:50.273Z,5.60
2018-05-03T06:18:50.235Z,5.50
2018-05-03T06:19:50.230Z,5.60
2018-05-03T06:20:50.203Z,5.50
2018-05-03T06:21:50.203Z,5.20
2018-05-03T06:22:50.172Z,5.40
2018-05-03T06:23:50.174Z,5.20
2018-05-03T06:24:50.142Z,5.60
2018-05-03T06:25:50.137Z,5.40
2018-05-03T06:26:50.109Z,5.60
2018-05-03T06:27:50.107Z,5.50
2018-05-03T06:28:50.096Z,5.40
2018-05-03T06:29:50.073Z,5.60
2018-05-03T06:30:50.053Z,5.60
2018-05-03T06:31:50.064Z,5.70
2018-05-03T06:32:50.035Z,5.80
2018-05-03T06:33:50.066Z,5.40
2018-05-03T06:34:49.988Z,5.30
2018-05-03T06:35:49.992Z,5.60
2018-05-03T06:36:49.984Z,5.50
2018-05-03T06:37:49.982Z,5.70
2018-05-03T06:38:50.031Z,5.70
2018-05-03T06:39:49.937Z,5.70
2018-05-03T06:40:49.913Z,6.00
2018-05-03T06:41:52.738Z,5.70
2018-05-03T06:42:49.890Z,5.70
2018-05-03T06:43:49.884Z,5.60
2018-05-03T06:45:10.870Z,5.70
2018-05-03T06:45:49.862Z,5.70
2018-05-03T06:46:49.811Z,5.90
2018-05-03T06:47:49.797Z,5.90
2018-05-03T06:48:49.790Z,5.80
2018-05-03T06:49:49.793Z,5.30
2018-05-03T06:50:49.753Z,5.60
2018-05-03T06:51:49.750Z,6.00
2018-05-03T06:52:49.722Z,5.50
2018-05-03T06:53:49.718Z,5.30
2018-05-03T06:54:49.689Z,5.50
2018-05-03T06:55:49.685Z,5.10
2018-05-03T06:56:49.659Z,5.40
2018-05-03T06:57:49.642Z,5.80
2018-05-03T06:58:49.630Z,5.80
2018-05-03T06:59:49.620Z,5.60
2018-05-03T07:00:49.595Z,5.60
2018-05-03T07:01:49.602Z,5.30
2018-05-03T07:02:49.574Z,5.60
2018-05-03T07:03:49.553Z,5.00
2018-05-03T07:04:49.541Z,5.30
2018-05-03T07:05:49.518Z,5.30
2018-05-03T07:06:49.527Z,5.10
2018-05-03T07:07:49.526Z,5.50
2018-05-03T07:08:49.475Z,5.80
2018-05-03T07:09:49.544Z,5.10
2018-05-03T07:10:49.458Z,5.40
2018-05-03T07:11:52.292Z,5.30
2018-05-03T07:12:49.436Z,5.10
2018-05-03T07:13:49.416Z,5.20
2018-05-03T07:14:49.383Z,5.00
2018-05-03T07:15:49.377Z,5.00
2018-05-03T07:16:49.367Z,5.20
2018-05-03T07:17:49.362Z,5.20
2018-05-03T07:18:49.327Z,5.00
2018-05-03T07:19:49.332Z,5.10
2018-05-03T07:20:49.304Z,5.40
2018-05-03T07:21:49.297Z,5.00
2018-05-03T07:22:49.319Z,5.30
2018-05-03T07:23:49.303Z,5.30
2018-05-03T07:24:49.238Z,5.20
2018-05-03T07:25:49.257Z,4.90
2018-05-03T07:26:49.254Z,5.00
2018-05-03T07:27:49.190Z,4.90
2018-05-03T07:28:49.199Z,5.30
2018-05-03T07:29:49.163Z,5.10
2018-05-03T07:30:49.166Z,5.30
2018-05-03T07:31:49.145Z,5.00
2018-05-03T07:32:49.121Z,5.50
2018-05-03T07:33:49.109Z,5.20
2018-05-03T07:34:49.113Z,5.10
2018-05-03T07:35:49.767Z,5.30
2018-05-03T07:36:49.064Z,5.50
2018-05-03T07:37:49.046Z,5.40
2018-05-03T07:38:49.045Z,5.20
2018-05-03T07:39:49.031Z,5.10
2018-05-03T07:40:49.016Z,5.40
2018-05-03T07:41:49.018Z,5.00
2018-05-03T07:42:48.970Z,5.50
2018-05-03T07:43:48.959Z,5.40
2018-05-03T07:44:48.953Z,5.30
2018-05-03T07:45:48.937Z,5.40
2018-05-03T07:46:48.937Z,5.60
2018-05-03T07:47:48.916Z,5.60
2018-05-03T07:48:48.886Z,5.10
2018-05-03T07:49:48.874Z,4.80
2018-05-03T07:50:48.868Z,5.20
2018-05-03T07:51:48.846Z,4.90
2018-05-03T07:52:48.835Z,5.30
2018-05-03T07:53:48.809Z,5.80
2018-05-03T07:54:48.799Z,6.00
2018-05-03T07:55:48.799Z,8.70
2018-05-03T07:56:48.799Z,8.00
2018-05-03T07:57:48.774Z,6.40
2018-05-03T07:58:48.740Z,5.20
2018-05-03T07:59:48.727Z,5.10
2018-05-03T08:00:48.710Z,5.00
2018-05-03T08:01:48.735Z,5.10
2018-05-03T08:02:48.745Z,5.00
2018-05-03T08:03:48.773Z,4.90
2018-05-03T08:04:48.662Z,4.50
2018-05-03T08:05:48.684Z,4.30
2018-05-03T08:06:48.634Z,4.70
2018-05-03T08:07:48.639Z,5.30
2018-05-03T08:08:48.617Z,5.40
2018-05-03T08:09:56.251Z,5.20
2018-05-03T08:10:48.844Z,5.30
2018-05-03T08:11:48.576Z,5.40
2018-05-03T08:12:48.583Z,5.20
2018-05-03T08:13:49.484Z,5.60
2018-05-03T08:14:48.542Z,5.20
2018-05-03T08:15:48.543Z,5.20
2018-05-03T08:16:48.486Z,5.20
2018-05-03T08:17:48.479Z,5.20
2018-05-03T08:18:48.467Z,5.30
2018-05-03T08:19:48.447Z,5.50
2018-05-03T08:20:48.454Z,4.90
2018-05-03T08:21:50.375Z,5.30
2018-05-03T08:22:48.573Z,5.50
2018-05-03T08:23:48.400Z,5.30
2018-05-03T08:24:48.410Z,5.70
2018-05-03T08:25:48.359Z,5.20
2018-05-03T08:26:48.349Z,5.20
2018-05-03T08:27:48.323Z,4.90
2018-05-03T08:28:48.322Z,5.20
2018-05-03T08:29:48.304Z,5.10
2018-05-03T08:30:48.303Z,5.20
2018-05-03T08:31:48.298Z,5.40
2018-05-03T08:32:48.262Z,5.60
2018-05-03T08:33:48.257Z,5.20
2018-05-03T08:34:48.290Z,5.20
2018-05-03T08:35:48.248Z,4.40
2018-05-03T08:36:48.212Z,4.30
2018-05-03T08:37:48.219Z,4.00
2018-05-03T08:38:48.187Z,3.80
2018-05-03T08:39:48.166Z,3.80
2018-05-03T08:40:48.179Z,4.10
2018-05-03T08:41:48.155Z,3.90
2018-05-03T08:42:48.126Z,4.10
2018-05-03T08:43:48.129Z,4.20
2018-05-03T08:44:48.122Z,4.10
2018-05-03T08:45:48.126Z,3.50
2018-05-03T08:46:48.084Z,3.90
2018-05-03T08:47:48.079Z,4.10
2018-05-03T08:48:48.082Z,3.90
2018-05-03T08:49:48.030Z,4.00
2018-05-03T08:50:48.026Z,4.00
2018-05-03T08:51:48.005Z,3.90
2018-05-03T08:52:47.985Z,4.20
2018-05-03T08:53:48.000Z,4.30
2018-05-03T08:54:47.963Z,4.00
2018-05-03T08:55:47.959Z,3.80
2018-05-03T08:56:47.940Z,4.20
2018-05-03T08:57:47.944Z,4.10
2018-05-03T08:58:47.908Z,4.00
2018-05-03T08:59:47.911Z,4.00
2018-05-03T09:00:47.886Z,3.90
2018-05-03T09:01:47.883Z,4.10
2018-05-03T09:02:47.864Z,4.10
2018-05-03T09:03:47.870Z,3.90
2018-05-03T09:04:47.855Z,3.80
2018-05-03T09:05:47.838Z,3.80
2018-05-03T09:06:47.826Z,3.90
2018-05-03T09:07:47.862Z,3.70
2018-05-03T09:08:47.806Z,3.50
2018-05-03T09:09:47.780Z,3.30
2018-05-03T09:10:47.760Z,3.60
2018-05-03T09:11:47.772Z,3.50
2018-05-03T09:12:47.741Z,3.50
2018-05-03T09:13:47.729Z,3.40
2018-05-03T09:14:47.718Z,3.20
2018-05-03T09:15:47.728Z,3.50
2018-05-03T09:16:47.683Z,3.00
2018-05-03T09:17:47.668Z,3.20
2018-05-03T09:18:47.658Z,2.60
2018-05-03T09:19:47.656Z,2.30
2018-05-03T09:20:47.650Z,2.70
2018-05-03T09:21:47.633Z,2.80
2018-05-03T09:22:47.635Z,3.10
2018-05-03T09:23:47.605Z,3.20
2018-05-03T09:24:47.625Z,3.00
2018-05-03T09:25:47.580Z,3.20
2018-05-03T09:26:47.626Z,3.20
2018-05-03T09:27:47.557Z,3.50
2018-05-03T09:28:47.569Z,3.50
2018-05-03T09:29:47.546Z,3.50
2018-05-03T09:30:47.538Z,3.30
2018-05-03T09:31:47.546Z,3.00
2018-05-03T09:32:47.495Z,2.90
2018-05-03T09:33:47.499Z,2.80
2018-05-03T09:34:47.489Z,2.70
2018-05-03T09:35:47.474Z,2.20
2018-05-03T09:36:47.468Z,2.70
2018-05-03T09:37:47.481Z,2.90
2018-05-03T09:38:47.456Z,2.80
2018-05-03T09:39:47.440Z,2.80
2018-05-03T09:40:47.436Z,2.90
2018-05-03T09:41:47.422Z,2.80
2018-05-03T09:42:47.448Z,2.60
2018-05-03T09:43:47.423Z,2.80
2018-05-03T09:44:47.410Z,3.00
2018-05-03T09:45:47.423Z,2.80
2018-05-03T09:46:47.409Z,2.70
2018-05-03T09:47:47.419Z,3.10
2018-05-03T09:48:47.492Z,3.20
2018-05-03T09:49:47.379Z,3.30
2018-05-03T09:50:47.373Z,3.20
2018-05-03T09:51:47.363Z,2.70
2018-05-03T09:52:47.376Z,2.80
2018-05-03T09:53:47.363Z,2.80
2018-05-03T09:54:47.373Z,2.70
2018-05-03T09:55:47.335Z,2.70
2018-05-03T09:56:47.333Z,2.80
2018-05-03T09:57:47.335Z,2.90
2018-05-03T09:58:47.324Z,3.00
2018-05-03T09:59:47.362Z,3.00
2018-05-03T10:00:49.779Z,3.20
2018-05-03T10:01:47.892Z,3.20
2018-05-03T10:02:47.311Z,3.10
2018-05-03T10:03:47.325Z,2.90
2018-05-03T10:04:47.297Z,2.80
2018-05-03T10:05:47.284Z,3.00
2018-05-03T10:06:47.276Z,2.90
2018-05-03T10:07:47.263Z,3.00
2018-05-03T10:08:47.256Z,2.80
2018-05-03T10:09:48.280Z,3.20
2018-05-03T10:10:47.255Z,3.20
2018-05-03T10:11:47.256Z,3.00
2018-05-03T10:12:47.229Z,2.90
2018-05-03T10:13:47.225Z,3.00
2018-05-03T10:14:47.239Z,3.00
2018-05-03T10:15:47.305Z,2.60
2018-05-03T10:16:47.225Z,3.30
2018-05-03T10:17:47.207Z,2.80
2018-05-03T10:18:47.199Z,2.80
2018-05-03T10:19:47.181Z,3.00
2018-05-03T10:20:47.182Z,3.20
2018-05-03T10:22:08.185Z,2.80
2018-05-03T10:22:47.169Z,3.00
2018-05-03T10:23:47.174Z,3.20
2018-05-03T10:24:47.165Z,3.10
2018-05-03T10:25:47.159Z,2.90
2018-05-03T10:26:47.172Z,3.10
2018-05-03T10:27:47.167Z,3.10
2018-05-03T10:28:47.149Z,2.70
2018-05-03T10:29:47.143Z,3.00
2018-05-03T10:30:47.146Z,2.90
2018-05-03T10:31:47.157Z,2.80
2018-05-03T10:32:47.136Z,2.90
2018-05-03T10:33:47.138Z,2.90
2018-05-03T10:34:47.131Z,2.90
2018-05-03T10:35:47.155Z,3.10
2018-05-03T10:36:47.144Z,3.20
2018-05-03T10:37:47.128Z,3.20
2018-05-03T10:38:47.138Z,2.80
2018-05-03T10:39:47.121Z,3.00
2018-05-03T10:40:47.120Z,3.00
2018-05-03T10:41:47.118Z,2.90
2018-05-03T10:42:47.117Z,3.00
2018-05-03T10:43:47.115Z,2.80
2018-05-03T10:44:47.130Z,3.10
2018-05-03T10:45:47.111Z,3.10
2018-05-03T10:46:47.108Z,2.70
2018-05-03T10:47:47.106Z,2.90
2018-05-03T10:48:47.101Z,3.10
2018-05-03T10:49:47.100Z,2.90
2018-05-03T10:50:47.112Z,2.80
2018-05-03T10:51:47.095Z,3.10
2018-05-03T10:52:47.097Z,2.70
2018-05-03T10:53:47.093Z,3.00
2018-05-03T10:54:47.095Z,2.90
2018-05-03T10:55:47.106Z,3.30
2018-05-03T10:56:47.093Z,3.00
2018-05-03T10:57:47.091Z,2.90
2018-05-03T10:58:47.085Z,2.90
2018-05-03T10:59:47.087Z,2.90
2018-05-03T11:00:47.101Z,2.60
2018-05-03T11:01:47.084Z,2.70
2018-05-03T11:02:47.084Z,2.60
2018-05-03T11:03:47.079Z,3.00
2018-05-03T11:04:47.079Z,2.70
2018-05-03T11:05:47.094Z,2.50
2018-05-03T11:06:47.074Z,2.70
2018-05-03T11:07:47.071Z,2.70
2018-05-03T11:08:47.070Z,2.70
2018-05-03T11:09:47.067Z,2.70
2018-05-03T11:10:47.078Z,2.90
2018-05-03T11:11:47.062Z,2.70
2018-05-03T11:12:47.077Z,2.40
2018-05-03T11:13:47.051Z,2.50
2018-05-03T11:14:47.056Z,2.40
2018-05-03T11:15:47.051Z,2.60
2018-05-03T11:16:47.093Z,2.60
2018-05-03T11:17:47.049Z,2.30
2018-05-03T11:18:47.045Z,2.70
2018-05-03T11:19:47.047Z,2.50
2018-05-03T11:20:47.040Z,2.60
2018-05-03T11:21:47.056Z,2.50
2018-05-03T11:22:47.038Z,2.40
2018-05-03T11:23:47.051Z,2.50
2018-05-03T11:24:47.032Z,2.30
2018-05-03T11:25:47.035Z,2.60
2018-05-03T11:26:47.045Z,2.70
2018-05-03T11:27:47.028Z,2.60
2018-05-03T11:28:47.027Z,2.90
2018-05-03T11:29:47.025Z,2.50
2018-05-03T11:30:47.024Z,2.80
2018-05-03T11:31:47.022Z,2.70
2018-05-03T11:32:47.035Z,2.90
2018-05-03T11:33:47.019Z,2.80
2018-05-03T11:34:47.017Z,2.60
2018-05-03T11:35:47.032Z,2.90
2018-05-03T11:36:47.122Z,2.60
2018-05-03T11:37:47.027Z,2.30
2018-05-03T11:38:47.023Z,2.60
2018-05-03T11:39:47.009Z,2.50
2018-05-03T11:40:47.004Z,2.70
2018-05-03T11:41:47.016Z,2.60
2018-05-03T11:42:47.090Z,2.60
2018-05-03T11:43:46.996Z,2.70
2018-05-03T11:44:47.001Z,2.40
2018-05-03T11:45:46.992Z,2.60
2018-05-03T11:46:47.009Z,2.60
2018-05-03T11:47:46.989Z,2.60
2018-05-03T11:48:47.018Z,2.70
2018-05-03T11:49:46.981Z,2.80
2018-05-03T11:50:47.003Z,2.70
2018-05-03T11:51:46.986Z,2.70
2018-05-03T11:52:46.980Z,2.90
2018-05-03T11:53:46.980Z,2.60
2018-05-03T11:54:46.977Z,3.00
2018-05-03T11:55:46.975Z,3.10
2018-05-03T11:56:46.987Z,2.60
2018-05-03T11:57:46.979Z,2.70
2018-05-03T11:58:46.971Z,3.00
2018-05-03T11:59:46.971Z,3.00
2018-05-03T12:00:46.986Z,2.90
2018-05-03T12:02:07.989Z,2.70
2018-05-03T12:02:46.968Z,2.80
2018-05-03T12:03:46.971Z,2.70
2018-05-03T12:04:46.962Z,2.70
2018-05-03T12:05:46.966Z,2.90
2018-05-03T12:06:46.959Z,2.80
2018-05-03T12:07:46.983Z,2.60
2018-05-03T12:08:46.960Z,3.00
2018-05-03T12:09:46.964Z,2.80
2018-05-03T12:10:46.958Z,3.10
2018-05-03T12:11:46.994Z,2.50
2018-05-03T12:13:07.977Z,2.70
2018-05-03T12:13:46.956Z,2.70
2018-05-03T12:14:46.957Z,2.60
2018-05-03T12:15:46.952Z,2.60
2018-05-03T12:16:46.952Z,2.80
2018-05-03T12:17:46.950Z,2.50
2018-05-03T12:18:46.973Z,2.60
2018-05-03T12:19:46.948Z,2.60
2018-05-03T12:20:46.947Z,2.50
2018-05-03T12:21:46.949Z,2.80
2018-05-03T12:22:46.944Z,2.50
2018-05-03T12:23:46.959Z,2.90
2018-05-03T12:24:46.945Z,3.20
2018-05-03T12:25:46.944Z,2.80
2018-05-03T12:26:46.937Z,3.10
2018-05-03T12:27:46.945Z,3.10
2018-05-03T12:28:46.954Z,3.00
2018-05-03T12:29:46.937Z,3.00
2018-05-03T12:30:46.935Z,3.00
2018-05-03T12:31:46.936Z,3.10
2018-05-03T12:32:46.934Z,2.80
2018-05-03T12:33:46.953Z,3.00
2018-05-03T12:34:46.938Z,2.90
2018-05-03T12:35:46.930Z,3.10
2018-05-03T12:36:46.932Z,3.30
2018-05-03T12:37:46.930Z,3.10
2018-05-03T12:38:46.938Z,2.60
2018-05-03T12:39:46.923Z,2.80
2018-05-03T12:40:46.924Z,2.50
2018-05-03T12:41:46.920Z,3.00
2018-05-03T12:42:46.924Z,2.80
2018-05-03T12:43:46.934Z,3.10
2018-05-03T12:44:46.912Z,2.70
2018-05-03T12:45:46.910Z,2.90
2018-05-03T12:46:46.906Z,2.80
2018-05-03T12:47:46.903Z,3.00
2018-05-03T12:48:46.918Z,3.00
2018-05-03T12:49:46.897Z,2.70
2018-05-03T12:50:46.892Z,2.80
2018-05-03T12:51:46.902Z,2.70
2018-05-03T12:52:46.886Z,3.00
2018-05-03T12:53:46.878Z,2.50
2018-05-03T12:54:46.887Z,2.70
2018-05-03T12:55:46.868Z,2.90
2018-05-03T12:56:46.873Z,2.70
2018-05-03T12:57:46.856Z,3.00
2018-05-03T12:58:46.850Z,3.00
2018-05-03T12:59:46.848Z,2.70
2018-05-03T13:00:46.916Z,2.80
2018-05-03T13:01:46.836Z,2.70
2018-05-03T13:02:46.831Z,2.90
2018-05-03T13:03:46.829Z,2.90
2018-05-03T13:04:46.822Z,2.90
2018-05-03T13:05:46.833Z,2.50
2018-05-03T13:06:46.821Z,2.70
2018-05-03T13:07:46.807Z,2.60
2018-05-03T13:08:46.805Z,2.50
2018-05-03T13:09:46.801Z,2.40
2018-05-03T13:10:46.797Z,2.30
2018-05-03T13:11:46.808Z,2.30
2018-05-03T13:12:46.787Z,2.50
2018-05-03T13:14:07.800Z,2.20
2018-05-03T13:14:46.780Z,2.60
2018-05-03T13:15:46.779Z,2.30
2018-05-03T13:16:46.788Z,2.60